SBI1638 URSS-LTAI
Flight info
| Callsign | SBI1638 |
|---|---|
| Flight time | 1h 25m |
| Altitude | 38000 |
| Route | LAMET G487 ODIRA UW96 SIN UT61 BAG/N0447F390 UP29 HISAR |
| Aircraft | A20N/M-SDE2E3FGHIRWXY/LB1 |
Departure
| Time | 2026-05-06 18:08 |
|---|---|
| Airport | Sochi International Airport (URSS) |
Arrival
| Time | 2026-05-06 19:33 |
|---|---|
| Airport | Antalya International Airport (LTAI) |
| Time | Latitude | Longitude | Altitude | Speed | Heading |
|---|---|---|---|---|---|
| 2026-05-06 17:43 | 43.44751 | 39.94184 | 55 ft | 0 kts | 334° |
| 2026-05-06 17:56 | 43.44750 | 39.94185 | 55 ft | 0 kts | 334° |
| 2026-05-06 17:56 | 43.44744 | 39.94189 | 55 ft | 2 kts | 334° |
| 2026-05-06 17:56 | 43.44731 | 39.94198 | 54 ft | 2 kts | 334° |
| 2026-05-06 17:57 | 43.44717 | 39.94207 | 54 ft | 2 kts | 334° |
| 2026-05-06 17:57 | 43.44704 | 39.94216 | 54 ft | 2 kts | 333° |
| 2026-05-06 17:57 | 43.44690 | 39.94225 | 53 ft | 2 kts | 334° |
| 2026-05-06 17:57 | 43.44677 | 39.94234 | 53 ft | 2 kts | 336° |
| 2026-05-06 17:58 | 43.44664 | 39.94243 | 53 ft | 2 kts | 335° |
| 2026-05-06 17:58 | 43.44650 | 39.94249 | 53 ft | 2 kts | 12° |
| 2026-05-06 17:58 | 43.44638 | 39.94239 | 52 ft | 0 kts | 59° |
| 2026-05-06 17:58 | 43.44636 | 39.94231 | 52 ft | 1 kts | 67° |
| 2026-05-06 17:59 | 43.44635 | 39.94228 | 52 ft | 0 kts | 65° |
| 2026-05-06 18:03 | 43.44643 | 39.94250 | 52 ft | 6 kts | 64° |
| 2026-05-06 18:04 | 43.44672 | 39.94335 | 55 ft | 12 kts | 64° |
| 2026-05-06 18:04 | 43.44714 | 39.94456 | 55 ft | 14 kts | 65° |
| 2026-05-06 18:04 | 43.44756 | 39.94580 | 56 ft | 14 kts | 64° |
| 2026-05-06 18:04 | 43.44801 | 39.94711 | 55 ft | 15 kts | 65° |
| 2026-05-06 18:05 | 43.44842 | 39.94832 | 58 ft | 12 kts | 65° |
| 2026-05-06 18:05 | 43.44883 | 39.94951 | 58 ft | 15 kts | 64° |
| 2026-05-06 18:05 | 43.44929 | 39.95083 | 61 ft | 14 kts | 62° |
| 2026-05-06 18:05 | 43.44975 | 39.95208 | 62 ft | 14 kts | 65° |
| 2026-05-06 18:06 | 43.45016 | 39.95330 | 65 ft | 14 kts | 64° |
| 2026-05-06 18:06 | 43.45056 | 39.95447 | 68 ft | 12 kts | 73° |
| 2026-05-06 18:06 | 43.45050 | 39.95507 | 69 ft | 0 kts | 131° |
| 2026-05-06 18:07 | 43.45046 | 39.95513 | 68 ft | 2 kts | 135° |
| 2026-05-06 18:07 | 43.45006 | 39.95542 | 68 ft | 9 kts | 166° |
| 2026-05-06 18:07 | 43.44943 | 39.95485 | 67 ft | 14 kts | 242° |
| 2026-05-06 18:08 | 43.44864 | 39.95259 | 63 ft | 57 kts | 246° |
| 2026-05-06 18:08 | 43.44585 | 39.94429 | 53 ft | 130 kts | 247° |
| 2026-05-06 18:08 | 43.44161 | 39.93118 | 339 ft | 161 kts | 253° |
| 2026-05-06 18:08 | 43.43744 | 39.91648 | 914 ft | 170 kts | 257° |
| 2026-05-06 18:09 | 43.43451 | 39.90060 | 1565 ft | 180 kts | 265° |
| 2026-05-06 18:09 | 43.43195 | 39.88284 | 2095 ft | 198 kts | 262° |
| 2026-05-06 18:09 | 43.42875 | 39.86333 | 2554 ft | 221 kts | 261° |
| 2026-05-06 18:09 | 43.42513 | 39.84195 | 3131 ft | 240 kts | 261° |
| 2026-05-06 18:10 | 43.42119 | 39.81895 | 3841 ft | 251 kts | 260° |
| 2026-05-06 18:10 | 43.41715 | 39.79555 | 4370 ft | 253 kts | 260° |
| 2026-05-06 18:10 | 43.41305 | 39.77193 | 4633 ft | 254 kts | 260° |
| 2026-05-06 18:10 | 43.40893 | 39.74815 | 4657 ft | 254 kts | 260° |
| 2026-05-06 18:11 | 43.40484 | 39.72457 | 4664 ft | 254 kts | 260° |
| 2026-05-06 18:11 | 43.40079 | 39.70122 | 4667 ft | 254 kts | 260° |
| 2026-05-06 18:11 | 43.39668 | 39.67742 | 4668 ft | 254 kts | 260° |
| 2026-05-06 18:11 | 43.39254 | 39.65348 | 4773 ft | 260 kts | 260° |
| 2026-05-06 18:12 | 43.38878 | 39.62937 | 5556 ft | 264 kts | 264° |
| 2026-05-06 18:12 | 43.38631 | 39.60468 | 6671 ft | 260 kts | 268° |
| 2026-05-06 18:12 | 43.38456 | 39.58007 | 7584 ft | 263 kts | 268° |
| 2026-05-06 18:12 | 43.38287 | 39.55514 | 8455 ft | 267 kts | 268° |
| 2026-05-06 18:13 | 43.38114 | 39.52974 | 9318 ft | 271 kts | 268° |
| 2026-05-06 18:13 | 43.37938 | 39.50403 | 10134 ft | 275 kts | 268° |
| 2026-05-06 18:13 | 43.37754 | 39.47718 | 10634 ft | 291 kts | 268° |
| 2026-05-06 18:13 | 43.37560 | 39.44870 | 11037 ft | 309 kts | 268° |
| 2026-05-06 18:14 | 43.37352 | 39.41846 | 11415 ft | 327 kts | 268° |
| 2026-05-06 18:14 | 43.37132 | 39.38696 | 11999 ft | 337 kts | 267° |
| 2026-05-06 18:14 | 43.36901 | 39.35458 | 12782 ft | 340 kts | 268° |
| 2026-05-06 18:14 | 43.36670 | 39.32246 | 13512 ft | 344 kts | 267° |
| 2026-05-06 18:15 | 43.36431 | 39.28924 | 14213 ft | 349 kts | 268° |
| 2026-05-06 18:15 | 43.36193 | 39.25608 | 14886 ft | 354 kts | 268° |
| 2026-05-06 18:15 | 43.35951 | 39.22250 | 15538 ft | 359 kts | 268° |
| 2026-05-06 18:15 | 43.35703 | 39.18806 | 16173 ft | 364 kts | 269° |
| 2026-05-06 18:16 | 43.35452 | 39.15327 | 16783 ft | 369 kts | 269° |
| 2026-05-06 18:16 | 43.35162 | 39.11800 | 17369 ft | 376 kts | 266° |
| 2026-05-06 18:16 | 43.34642 | 39.08237 | 17937 ft | 385 kts | 260° |
| 2026-05-06 18:16 | 43.33845 | 39.04701 | 18482 ft | 393 kts | 255° |
| 2026-05-06 18:17 | 43.32883 | 39.01189 | 19011 ft | 399 kts | 253° |
| 2026-05-06 18:17 | 43.31854 | 38.97577 | 19530 ft | 405 kts | 253° |
| 2026-05-06 18:17 | 43.30821 | 38.93957 | 20038 ft | 411 kts | 253° |
| 2026-05-06 18:17 | 43.29792 | 38.90336 | 20533 ft | 416 kts | 253° |
| 2026-05-06 18:18 | 43.28733 | 38.86599 | 21028 ft | 422 kts | 253° |
| 2026-05-06 18:18 | 43.27673 | 38.82843 | 21512 ft | 427 kts | 253° |
| 2026-05-06 18:18 | 43.26585 | 38.78987 | 21995 ft | 433 kts | 253° |
| 2026-05-06 18:18 | 43.25501 | 38.75164 | 22460 ft | 438 kts | 252° |
| 2026-05-06 18:19 | 43.24386 | 38.71263 | 22923 ft | 444 kts | 252° |
| 2026-05-06 18:19 | 43.23251 | 38.67311 | 23382 ft | 449 kts | 252° |
| 2026-05-06 18:19 | 43.22089 | 38.63280 | 23830 ft | 454 kts | 251° |
| 2026-05-06 18:19 | 43.20933 | 38.59280 | 24259 ft | 459 kts | 251° |
| 2026-05-06 18:20 | 43.19745 | 38.55178 | 24689 ft | 464 kts | 251° |
| 2026-05-06 18:20 | 43.18550 | 38.51060 | 25236 ft | 465 kts | 251° |
| 2026-05-06 18:20 | 43.17362 | 38.46972 | 25789 ft | 466 kts | 250° |
| 2026-05-06 18:20 | 43.16148 | 38.42800 | 26211 ft | 470 kts | 250° |
| 2026-05-06 18:21 | 43.14941 | 38.38663 | 26599 ft | 475 kts | 250° |
| 2026-05-06 18:21 | 43.13715 | 38.34472 | 26992 ft | 479 kts | 249° |
| 2026-05-06 18:21 | 43.12463 | 38.30187 | 27371 ft | 482 kts | 248° |
| 2026-05-06 18:21 | 43.11227 | 38.25970 | 27733 ft | 486 kts | 248° |
| 2026-05-06 18:22 | 43.09959 | 38.21652 | 28090 ft | 489 kts | 248° |
| 2026-05-06 18:22 | 43.08689 | 38.17331 | 28433 ft | 492 kts | 247° |
| 2026-05-06 18:22 | 43.07412 | 38.12950 | 28767 ft | 495 kts | 247° |
| 2026-05-06 18:22 | 43.06153 | 38.08599 | 29135 ft | 496 kts | 247° |
| 2026-05-06 18:23 | 43.04894 | 38.04253 | 29606 ft | 495 kts | 246° |
| 2026-05-06 18:23 | 43.03615 | 37.99853 | 30094 ft | 493 kts | 246° |
| 2026-05-06 18:23 | 43.02352 | 37.95532 | 30550 ft | 491 kts | 245° |
| 2026-05-06 18:23 | 43.01085 | 37.91231 | 30973 ft | 489 kts | 245° |
| 2026-05-06 18:24 | 42.99807 | 37.86922 | 31379 ft | 488 kts | 244° |
| 2026-05-06 18:24 | 42.98541 | 37.82657 | 31774 ft | 487 kts | 244° |
| 2026-05-06 18:24 | 42.97267 | 37.78359 | 32169 ft | 486 kts | 244° |
| 2026-05-06 18:24 | 42.95999 | 37.74082 | 32556 ft | 484 kts | 243° |
| 2026-05-06 18:25 | 42.94744 | 37.69862 | 32926 ft | 483 kts | 243° |
| 2026-05-06 18:25 | 42.93484 | 37.65646 | 33286 ft | 482 kts | 243° |
| 2026-05-06 18:25 | 42.92209 | 37.61395 | 33641 ft | 481 kts | 242° |
| 2026-05-06 18:25 | 42.90956 | 37.57226 | 33981 ft | 480 kts | 242° |
| 2026-05-06 18:26 | 42.89679 | 37.52995 | 34312 ft | 478 kts | 242° |
| 2026-05-06 18:26 | 42.88415 | 37.48860 | 34622 ft | 478 kts | 242° |
| 2026-05-06 18:26 | 42.87121 | 37.44644 | 34918 ft | 477 kts | 242° |
| 2026-05-06 18:26 | 42.85856 | 37.40507 | 35198 ft | 477 kts | 242° |
| 2026-05-06 18:27 | 42.84583 | 37.36332 | 35478 ft | 477 kts | 242° |
| 2026-05-06 18:27 | 42.83309 | 37.32141 | 35741 ft | 476 kts | 242° |
| 2026-05-06 18:27 | 42.82053 | 37.27996 | 35979 ft | 476 kts | 242° |
| 2026-05-06 18:27 | 42.80800 | 37.23867 | 36185 ft | 476 kts | 242° |
| 2026-05-06 18:28 | 42.79522 | 37.19668 | 36357 ft | 477 kts | 242° |
| 2026-05-06 18:28 | 42.78249 | 37.15499 | 36510 ft | 478 kts | 242° |
| 2026-05-06 18:28 | 42.76969 | 37.11319 | 36659 ft | 479 kts | 242° |
| 2026-05-06 18:28 | 42.75696 | 37.07170 | 36803 ft | 480 kts | 242° |
| 2026-05-06 18:29 | 42.74405 | 37.02966 | 37008 ft | 479 kts | 242° |
| 2026-05-06 18:29 | 42.73141 | 36.98853 | 37553 ft | 470 kts | 242° |
| 2026-05-06 18:29 | 42.71880 | 36.94762 | 37794 ft | 468 kts | 243° |
| 2026-05-06 18:29 | 42.70571 | 36.90686 | 37806 ft | 471 kts | 240° |
| 2026-05-06 18:30 | 42.67686 | 36.82637 | 37816 ft | 478 kts | 239° |
| 2026-05-06 18:30 | 42.64713 | 36.74472 | 37818 ft | 484 kts | 239° |
| 2026-05-06 18:31 | 42.61720 | 36.66262 | 37818 ft | 490 kts | 239° |
| 2026-05-06 18:31 | 42.58680 | 36.57944 | 37818 ft | 495 kts | 239° |
| 2026-05-06 18:32 | 42.55591 | 36.49509 | 37818 ft | 497 kts | 239° |
| 2026-05-06 18:32 | 42.52521 | 36.41148 | 37817 ft | 497 kts | 239° |
| 2026-05-06 18:33 | 42.49433 | 36.32765 | 37815 ft | 497 kts | 238° |
| 2026-05-06 18:33 | 42.46352 | 36.24397 | 37816 ft | 497 kts | 238° |
| 2026-05-06 18:34 | 42.43274 | 36.16077 | 37817 ft | 497 kts | 238° |
| 2026-05-06 18:34 | 42.40179 | 36.07750 | 37817 ft | 497 kts | 238° |
| 2026-05-06 18:35 | 42.37066 | 35.99406 | 37817 ft | 497 kts | 238° |
| 2026-05-06 18:35 | 42.33951 | 35.91081 | 37817 ft | 497 kts | 238° |
| 2026-05-06 18:36 | 42.30835 | 35.82776 | 37817 ft | 497 kts | 238° |
| 2026-05-06 18:36 | 42.27718 | 35.74493 | 37817 ft | 497 kts | 238° |
| 2026-05-06 18:37 | 42.24575 | 35.66170 | 37817 ft | 497 kts | 238° |
| 2026-05-06 18:37 | 42.21433 | 35.57875 | 37817 ft | 497 kts | 238° |
| 2026-05-06 18:38 | 42.18305 | 35.49646 | 37817 ft | 497 kts | 238° |
| 2026-05-06 18:38 | 42.15135 | 35.41330 | 37817 ft | 497 kts | 238° |
| 2026-05-06 18:39 | 42.12007 | 35.33079 | 37815 ft | 497 kts | 238° |
| 2026-05-06 18:40 | 42.07311 | 35.20708 | 37816 ft | 496 kts | 238° |
| 2026-05-06 18:40 | 42.03885 | 35.12714 | 37817 ft | 492 kts | 231° |
| 2026-05-06 18:41 | 41.99791 | 35.05403 | 37818 ft | 486 kts | 224° |
| 2026-05-06 18:41 | 41.95144 | 34.98958 | 37818 ft | 481 kts | 216° |
| 2026-05-06 18:42 | 41.90162 | 34.93007 | 37817 ft | 480 kts | 216° |
| 2026-05-06 18:42 | 41.85133 | 34.87051 | 37817 ft | 480 kts | 216° |
| 2026-05-06 18:43 | 41.80176 | 34.81163 | 37817 ft | 480 kts | 216° |
| 2026-05-06 18:43 | 41.75190 | 34.75229 | 37817 ft | 480 kts | 216° |
| 2026-05-06 18:44 | 41.70206 | 34.69301 | 37817 ft | 480 kts | 216° |
| 2026-05-06 18:44 | 41.65231 | 34.63398 | 37817 ft | 480 kts | 216° |
| 2026-05-06 18:45 | 41.60231 | 34.57479 | 37817 ft | 480 kts | 216° |
| 2026-05-06 18:45 | 41.55241 | 34.51572 | 37817 ft | 480 kts | 216° |
| 2026-05-06 18:46 | 41.50291 | 34.45680 | 37817 ft | 481 kts | 216° |
| 2026-05-06 18:46 | 41.45303 | 34.39757 | 37817 ft | 481 kts | 216° |
| 2026-05-06 18:47 | 41.40321 | 34.33860 | 37815 ft | 480 kts | 216° |
| 2026-05-06 18:47 | 41.35360 | 34.27976 | 37816 ft | 480 kts | 216° |
| 2026-05-06 18:48 | 41.30383 | 34.22101 | 37817 ft | 480 kts | 216° |
| 2026-05-06 18:48 | 41.25393 | 34.16232 | 37817 ft | 480 kts | 216° |
| 2026-05-06 18:49 | 41.20403 | 34.10389 | 37817 ft | 480 kts | 215° |
| 2026-05-06 18:49 | 41.15389 | 34.04535 | 37817 ft | 480 kts | 215° |
| 2026-05-06 18:50 | 41.10401 | 33.98728 | 37817 ft | 480 kts | 215° |
| 2026-05-06 18:50 | 41.05403 | 33.92919 | 37817 ft | 480 kts | 215° |
| 2026-05-06 18:51 | 41.00383 | 33.87098 | 37817 ft | 480 kts | 215° |
| 2026-05-06 18:51 | 40.95372 | 33.81300 | 37817 ft | 480 kts | 215° |
| 2026-05-06 18:52 | 40.90352 | 33.75503 | 37817 ft | 480 kts | 215° |
| 2026-05-06 18:52 | 40.85288 | 33.69693 | 37817 ft | 480 kts | 215° |
| 2026-05-06 18:53 | 40.80253 | 33.63928 | 37817 ft | 480 kts | 215° |
| 2026-05-06 18:53 | 40.75247 | 33.58192 | 37817 ft | 480 kts | 215° |
| 2026-05-06 18:54 | 40.70199 | 33.52414 | 37817 ft | 480 kts | 215° |
| 2026-05-06 18:54 | 40.65154 | 33.46650 | 37817 ft | 480 kts | 216° |
| 2026-05-06 18:55 | 40.60154 | 33.40947 | 37817 ft | 480 kts | 216° |
| 2026-05-06 18:55 | 40.55092 | 33.35187 | 37817 ft | 480 kts | 216° |
| 2026-05-06 18:56 | 40.50061 | 33.29445 | 37816 ft | 480 kts | 215° |
| 2026-05-06 18:56 | 40.45008 | 33.23697 | 37817 ft | 480 kts | 215° |
| 2026-05-06 18:57 | 40.39994 | 33.18021 | 37817 ft | 480 kts | 215° |
| 2026-05-06 18:57 | 40.34954 | 33.12334 | 37817 ft | 480 kts | 215° |
| 2026-05-06 18:58 | 40.29905 | 33.06650 | 37817 ft | 480 kts | 214° |
| 2026-05-06 18:58 | 40.24853 | 33.00976 | 37817 ft | 480 kts | 214° |
| 2026-05-06 18:59 | 40.19772 | 32.95282 | 37817 ft | 480 kts | 214° |
| 2026-05-06 18:59 | 40.14739 | 32.89658 | 37817 ft | 480 kts | 214° |
| 2026-05-06 19:00 | 40.09618 | 32.84090 | 37817 ft | 477 kts | 211° |
| 2026-05-06 19:00 | 40.04159 | 32.79234 | 37817 ft | 471 kts | 205° |
| 2026-05-06 19:01 | 39.98460 | 32.75236 | 37817 ft | 468 kts | 201° |
| 2026-05-06 19:01 | 39.92679 | 32.71381 | 37817 ft | 468 kts | 201° |
| 2026-05-06 19:02 | 39.86910 | 32.67365 | 37817 ft | 471 kts | 204° |
| 2026-05-06 19:02 | 39.81281 | 32.63096 | 37817 ft | 471 kts | 204° |
| 2026-05-06 19:03 | 39.75617 | 32.58814 | 37817 ft | 471 kts | 204° |
| 2026-05-06 19:03 | 39.69962 | 32.54577 | 37817 ft | 471 kts | 204° |
| 2026-05-06 19:04 | 39.64313 | 32.50365 | 37817 ft | 471 kts | 204° |
| 2026-05-06 19:04 | 39.58633 | 32.46143 | 37817 ft | 471 kts | 204° |
| 2026-05-06 19:05 | 39.52947 | 32.41925 | 37817 ft | 471 kts | 204° |
| 2026-05-06 19:05 | 39.47305 | 32.37748 | 37817 ft | 471 kts | 204° |
| 2026-05-06 19:06 | 39.41602 | 32.33528 | 37815 ft | 471 kts | 204° |
| 2026-05-06 19:06 | 39.35972 | 32.29345 | 37816 ft | 470 kts | 204° |
| 2026-05-06 19:07 | 39.30312 | 32.25161 | 37817 ft | 470 kts | 203° |
| 2026-05-06 19:07 | 39.24636 | 32.20985 | 37817 ft | 470 kts | 203° |
| 2026-05-06 19:08 | 39.18944 | 32.16809 | 37817 ft | 470 kts | 203° |
| 2026-05-06 19:08 | 39.13274 | 32.12658 | 37817 ft | 470 kts | 203° |
| 2026-05-06 19:09 | 39.07588 | 32.08504 | 37817 ft | 470 kts | 203° |
| 2026-05-06 19:09 | 39.01911 | 32.04364 | 37817 ft | 470 kts | 203° |
| 2026-05-06 19:10 | 38.96246 | 32.00239 | 37814 ft | 467 kts | 203° |
| 2026-05-06 19:10 | 38.90615 | 31.96146 | 37816 ft | 464 kts | 203° |
| 2026-05-06 19:10 | 38.87804 | 31.94112 | 37600 ft | 466 kts | 203° |
| 2026-05-06 19:11 | 38.84999 | 31.92086 | 37061 ft | 463 kts | 203° |
| 2026-05-06 19:11 | 38.82228 | 31.90083 | 36357 ft | 464 kts | 202° |
| 2026-05-06 19:11 | 38.79423 | 31.88056 | 35549 ft | 466 kts | 202° |
| 2026-05-06 19:11 | 38.76583 | 31.86005 | 34730 ft | 468 kts | 202° |
| 2026-05-06 19:12 | 38.73755 | 31.83963 | 33923 ft | 469 kts | 201° |
| 2026-05-06 19:12 | 38.70902 | 31.81909 | 33044 ft | 472 kts | 201° |
| 2026-05-06 19:12 | 38.68061 | 31.79873 | 32209 ft | 474 kts | 202° |
| 2026-05-06 19:12 | 38.65203 | 31.77820 | 31580 ft | 473 kts | 202° |
| 2026-05-06 19:13 | 38.62331 | 31.75757 | 30929 ft | 472 kts | 203° |
| 2026-05-06 19:13 | 38.59501 | 31.73725 | 30291 ft | 472 kts | 203° |
| 2026-05-06 19:13 | 38.56625 | 31.71662 | 29644 ft | 472 kts | 204° |
| 2026-05-06 19:13 | 38.53789 | 31.69630 | 29010 ft | 472 kts | 204° |
| 2026-05-06 19:14 | 38.50931 | 31.67582 | 28374 ft | 472 kts | 205° |
| 2026-05-06 19:14 | 38.48053 | 31.65522 | 27735 ft | 472 kts | 205° |
| 2026-05-06 19:14 | 38.45212 | 31.63490 | 27108 ft | 472 kts | 206° |
| 2026-05-06 19:14 | 38.42374 | 31.61461 | 26482 ft | 471 kts | 206° |
| 2026-05-06 19:15 | 38.39540 | 31.59436 | 25857 ft | 471 kts | 207° |
| 2026-05-06 19:15 | 38.36687 | 31.57400 | 25230 ft | 469 kts | 207° |
| 2026-05-06 19:15 | 38.33835 | 31.55366 | 24602 ft | 468 kts | 208° |
| 2026-05-06 19:15 | 38.31028 | 31.53365 | 23984 ft | 466 kts | 208° |
| 2026-05-06 19:16 | 38.28211 | 31.51359 | 23403 ft | 463 kts | 209° |
| 2026-05-06 19:16 | 38.25428 | 31.49378 | 22887 ft | 459 kts | 209° |
| 2026-05-06 19:16 | 38.22661 | 31.47410 | 22395 ft | 454 kts | 210° |
| 2026-05-06 19:16 | 38.19925 | 31.45467 | 21922 ft | 449 kts | 210° |
| 2026-05-06 19:17 | 38.17219 | 31.43546 | 21455 ft | 444 kts | 210° |
| 2026-05-06 19:17 | 38.14528 | 31.41638 | 20994 ft | 439 kts | 211° |
| 2026-05-06 19:17 | 38.11910 | 31.39784 | 20545 ft | 434 kts | 211° |
| 2026-05-06 19:17 | 38.09285 | 31.37926 | 20096 ft | 429 kts | 211° |
| 2026-05-06 19:18 | 38.06679 | 31.36084 | 19650 ft | 424 kts | 211° |
| 2026-05-06 19:18 | 38.04122 | 31.34276 | 19211 ft | 420 kts | 211° |
| 2026-05-06 19:18 | 38.01619 | 31.32496 | 18778 ft | 416 kts | 211° |
| 2026-05-06 19:18 | 37.99085 | 31.30695 | 18340 ft | 411 kts | 211° |
| 2026-05-06 19:19 | 37.96630 | 31.28957 | 17941 ft | 406 kts | 212° |
| 2026-05-06 19:19 | 37.94179 | 31.27227 | 17821 ft | 397 kts | 212° |
| 2026-05-06 19:19 | 37.91769 | 31.25527 | 17813 ft | 398 kts | 212° |
| 2026-05-06 19:19 | 37.89381 | 31.23846 | 17731 ft | 395 kts | 212° |
| 2026-05-06 19:20 | 37.86970 | 31.22160 | 17589 ft | 394 kts | 211° |
| 2026-05-06 19:20 | 37.84582 | 31.20494 | 17059 ft | 393 kts | 212° |
| 2026-05-06 19:20 | 37.82193 | 31.18827 | 16828 ft | 387 kts | 212° |
| 2026-05-06 19:20 | 37.79864 | 31.17198 | 16814 ft | 388 kts | 212° |
| 2026-05-06 19:21 | 37.77507 | 31.15548 | 16811 ft | 388 kts | 212° |
| 2026-05-06 19:21 | 37.75153 | 31.13900 | 16809 ft | 388 kts | 212° |
| 2026-05-06 19:21 | 37.72798 | 31.12254 | 16630 ft | 384 kts | 212° |
| 2026-05-06 19:21 | 37.70463 | 31.10623 | 15856 ft | 390 kts | 212° |
| 2026-05-06 19:22 | 37.68076 | 31.08954 | 15119 ft | 392 kts | 212° |
| 2026-05-06 19:22 | 37.65733 | 31.07321 | 14555 ft | 377 kts | 212° |
| 2026-05-06 19:22 | 37.63482 | 31.05756 | 13481 ft | 371 kts | 212° |
| 2026-05-06 19:22 | 37.61251 | 31.04200 | 12288 ft | 366 kts | 212° |
| 2026-05-06 19:23 | 37.59081 | 31.02688 | 11274 ft | 358 kts | 212° |
| 2026-05-06 19:23 | 37.56898 | 31.01168 | 10527 ft | 360 kts | 212° |
| 2026-05-06 19:23 | 37.54731 | 30.99663 | 10073 ft | 354 kts | 212° |
| 2026-05-06 19:23 | 37.52612 | 30.98196 | 9907 ft | 340 kts | 212° |
| 2026-05-06 19:24 | 37.50590 | 30.96798 | 9896 ft | 323 kts | 212° |
| 2026-05-06 19:24 | 37.48679 | 30.95477 | 9892 ft | 307 kts | 212° |
| 2026-05-06 19:24 | 37.46860 | 30.94219 | 9890 ft | 291 kts | 213° |
| 2026-05-06 19:24 | 37.45134 | 30.93034 | 9852 ft | 278 kts | 211° |
| 2026-05-06 19:25 | 37.43356 | 30.92018 | 9423 ft | 282 kts | 204° |
| 2026-05-06 19:25 | 37.41510 | 30.91191 | 8996 ft | 284 kts | 202° |
| 2026-05-06 19:25 | 37.39610 | 30.90388 | 8564 ft | 286 kts | 202° |
| 2026-05-06 19:25 | 37.37738 | 30.89600 | 8140 ft | 286 kts | 202° |
| 2026-05-06 19:26 | 37.35863 | 30.88807 | 7717 ft | 287 kts | 202° |
| 2026-05-06 19:26 | 37.33974 | 30.88003 | 7294 ft | 287 kts | 202° |
| 2026-05-06 19:26 | 37.32074 | 30.87194 | 6869 ft | 287 kts | 202° |
| 2026-05-06 19:26 | 37.30161 | 30.86484 | 6520 ft | 286 kts | 197° |
| 2026-05-06 19:27 | 37.28242 | 30.85955 | 6177 ft | 284 kts | 195° |
| 2026-05-06 19:27 | 37.26295 | 30.85458 | 5829 ft | 281 kts | 195° |
| 2026-05-06 19:27 | 37.24388 | 30.84974 | 5487 ft | 279 kts | 195° |
| 2026-05-06 19:27 | 37.22514 | 30.84494 | 5150 ft | 276 kts | 195° |
| 2026-05-06 19:28 | 37.20642 | 30.84011 | 4814 ft | 274 kts | 195° |
| 2026-05-06 19:28 | 37.18797 | 30.83464 | 4495 ft | 270 kts | 197° |
| 2026-05-06 19:28 | 37.16958 | 30.82996 | 4208 ft | 267 kts | 193° |
| 2026-05-06 19:28 | 37.15183 | 30.82694 | 4196 ft | 252 kts | 191° |
| 2026-05-06 19:29 | 37.13493 | 30.82462 | 4206 ft | 237 kts | 190° |
| 2026-05-06 19:29 | 37.11894 | 30.82255 | 4090 ft | 228 kts | 190° |
| 2026-05-06 19:29 | 37.10324 | 30.82047 | 3811 ft | 227 kts | 190° |
| 2026-05-06 19:29 | 37.08758 | 30.81835 | 3512 ft | 227 kts | 191° |
| 2026-05-06 19:30 | 37.07179 | 30.81620 | 3211 ft | 227 kts | 191° |
| 2026-05-06 19:30 | 37.05618 | 30.81406 | 2913 ft | 227 kts | 191° |
| 2026-05-06 19:30 | 37.04042 | 30.81190 | 2611 ft | 228 kts | 191° |
| 2026-05-06 19:30 | 37.02482 | 30.80977 | 2311 ft | 228 kts | 191° |
| 2026-05-06 19:31 | 37.00923 | 30.80765 | 2004 ft | 221 kts | 191° |
| 2026-05-06 19:31 | 36.99439 | 30.80565 | 1805 ft | 204 kts | 191° |
| 2026-05-06 19:31 | 36.96829 | 30.80210 | 1250 ft | 177 kts | 192° |
| 2026-05-06 19:32 | 36.95644 | 30.80047 | 990 ft | 165 kts | 192° |
| 2026-05-06 19:32 | 36.94556 | 30.79899 | 762 ft | 151 kts | 193° |
| 2026-05-06 19:32 | 36.93538 | 30.79758 | 581 ft | 145 kts | 193° |
| 2026-05-06 19:32 | 36.92544 | 30.79620 | 397 ft | 145 kts | 193° |
| 2026-05-06 19:33 | 36.91537 | 30.79482 | 202 ft | 144 kts | 193° |
| 2026-05-06 19:33 | 36.90625 | 30.79356 | 176 ft | 116 kts | 189° |
| 2026-05-06 19:33 | 36.89992 | 30.79257 | 176 ft | 66 kts | 186° |
| 2026-05-06 19:33 | 36.89695 | 30.79224 | 176 ft | 27 kts | 184° |
| 2026-05-06 19:34 | 36.89503 | 30.79280 | 176 ft | 28 kts | 155° |
| 2026-05-06 19:34 | 36.89462 | 30.79303 | 176 ft | 0 kts | 154° |
| 2026-05-06 19:35 | 36.89459 | 30.79305 | 176 ft | 1 kts | 154° |
| 2026-05-06 19:35 | 36.89446 | 30.79313 | 176 ft | 2 kts | 154° |
| 2026-05-06 19:35 | 36.89422 | 30.79328 | 176 ft | 5 kts | 151° |
| 2026-05-06 19:36 | 36.89407 | 30.79382 | 176 ft | 9 kts | 59° |
| 2026-05-06 19:36 | 36.89482 | 30.79416 | 176 ft | 14 kts | 4° |
| 2026-05-06 19:36 | 36.89587 | 30.79432 | 176 ft | 15 kts | 6° |
| 2026-05-06 19:36 | 36.89696 | 30.79444 | 176 ft | 16 kts | 5° |
| 2026-05-06 19:37 | 36.89809 | 30.79461 | 176 ft | 16 kts | 7° |
| 2026-05-06 19:37 | 36.89844 | 30.79545 | 176 ft | 14 kts | 153° |
| 2026-05-06 19:37 | 36.89743 | 30.79540 | 176 ft | 14 kts | 187° |
| 2026-05-06 19:37 | 36.89653 | 30.79573 | 176 ft | 14 kts | 108° |
| 2026-05-06 19:38 | 36.89644 | 30.79696 | 176 ft | 14 kts | 95° |
| 2026-05-06 19:38 | 36.89635 | 30.79825 | 176 ft | 14 kts | 97° |
| 2026-05-06 19:38 | 36.89627 | 30.79901 | 176 ft | 0 kts | 96° |
| 2026-05-06 19:38 | 36.89627 | 30.79905 | 176 ft | 1 kts | 96° |
| 2026-05-06 19:39 | 36.89625 | 30.79925 | 176 ft | 3 kts | 96° |
| 2026-05-06 19:39 | 36.89623 | 30.79974 | 176 ft | 6 kts | 84° |
| 2026-05-06 19:39 | 36.89649 | 30.80025 | 176 ft | 7 kts | 37° |
| 2026-05-06 19:39 | 36.89687 | 30.80057 | 177 ft | 6 kts | 34° |
| 2026-05-06 19:40 | 36.89693 | 30.80062 | 177 ft | 0 kts | 34° |